sensor_id;sensor_type;location;lat;lon;timestamp;pressure;altitude;pressure_sealevel;temperature;humidity
19795;BME280;10057;59.402;17.866;2022-09-09T00:03:50;102116.94;;;10.54;64.88
19795;BME280;10057;59.402;17.866;2022-09-09T00:09:19;102110.88;;;10.46;64.84
19795;BME280;10057;59.402;17.866;2022-09-09T00:12:17;102122.41;;;10.43;65.40
19795;BME280;10057;59.402;17.866;2022-09-09T00:15:42;102123.25;;;10.46;65.38
19795;BME280;10057;59.402;17.866;2022-09-09T00:18:07;102112.63;;;10.46;65.32
19795;BME280;10057;59.402;17.866;2022-09-09T00:23:19;102117.97;;;10.42;65.35
19795;BME280;10057;59.402;17.866;2022-09-09T00:29:05;102110.09;;;10.38;65.27
19795;BME280;10057;59.402;17.866;2022-09-09T00:31:36;102114.53;;;10.37;65.45
19795;BME280;10057;59.402;17.866;2022-09-09T00:34:21;102117.09;;;10.42;65.52
19795;BME280;10057;59.402;17.866;2022-09-09T00:36:52;102112.59;;;10.49;65.83
19795;BME280;10057;59.402;17.866;2022-09-09T00:39:42;102110.75;;;10.54;65.39
19795;BME280;10057;59.402;17.866;2022-09-09T00:42:26;102103.63;;;10.56;65.79
19795;BME280;10057;59.402;17.866;2022-09-09T00:47:50;102103.53;;;10.62;65.20
19795;BME280;10057;59.402;17.866;2022-09-09T00:52:59;102101.66;;;10.70;65.34
19795;BME280;10057;59.402;17.866;2022-09-09T00:55:42;102103.34;;;10.74;65.43
19795;BME280;10057;59.402;17.866;2022-09-09T00:58:12;102104.19;;;10.76;65.77
19795;BME280;10057;59.402;17.866;2022-09-09T01:00:50;102094.38;;;10.81;65.43
19795;BME280;10057;59.402;17.866;2022-09-09T01:06:19;102096.84;;;10.92;65.44
19795;BME280;10057;59.402;17.866;2022-09-09T01:17:22;102089.63;;;11.00;65.32
19795;BME280;10057;59.402;17.866;2022-09-09T01:20:23;102091.34;;;11.03;65.43
19795;BME280;10057;59.402;17.866;2022-09-09T01:26:28;102081.47;;;11.11;65.19
19795;BME280;10057;59.402;17.866;2022-09-09T01:28:57;102083.19;;;11.13;65.28
19795;BME280;10057;59.402;17.866;2022-09-09T01:31:36;102080.53;;;11.15;65.21
19795;BME280;10057;59.402;17.866;2022-09-09T01:34:14;102077.88;;;11.15;65.48
19795;BME280;10057;59.402;17.866;2022-09-09T01:36:57;102068.13;;;11.14;65.51
19795;BME280;10057;59.402;17.866;2022-09-09T01:39:26;102069.91;;;11.13;65.61
19795;BME280;10057;59.402;17.866;2022-09-09T01:41:54;102067.25;;;11.15;65.36
19795;BME280;10057;59.402;17.866;2022-09-09T01:44:21;102069.03;;;11.14;65.39
19795;BME280;10057;59.402;17.866;2022-09-09T01:46:48;102066.38;;;11.14;65.60
19795;BME280;10057;59.402;17.866;2022-09-09T01:49:16;102062.75;;;11.17;65.64
19795;BME280;10057;59.402;17.866;2022-09-09T01:51:43;102065.34;;;11.20;65.45
19795;BME280;10057;59.402;17.866;2022-09-09T01:54:12;102070.66;;;11.22;65.57
19795;BME280;10057;59.402;17.866;2022-09-09T02:00:00;102062.56;;;11.28;65.01
19795;BME280;10057;59.402;17.866;2022-09-09T02:02:36;102060.81;;;11.28;64.91
19795;BME280;10057;59.402;17.866;2022-09-09T02:08:06;102052.72;;;11.33;65.10
19795;BME280;10057;59.402;17.866;2022-09-09T02:10:53;102056.19;;;11.36;64.73
19795;BME280;10057;59.402;17.866;2022-09-09T02:13:22;102049.97;;;11.37;65.09
19795;BME280;10057;59.402;17.866;2022-09-09T02:16:03;102049.09;;;11.38;65.03
19795;BME280;10057;59.402;17.866;2022-09-09T02:21:03;102036.63;;;11.41;64.82
19795;BME280;10057;59.402;17.866;2022-09-09T02:23:30;102035.69;;;11.43;64.46
19795;BME280;10057;59.402;17.866;2022-09-09T02:25:58;102030.31;;;11.46;64.45
19795;BME280;10057;59.402;17.866;2022-09-09T02:28:28;102034.72;;;11.49;64.52
19795;BME280;10057;59.402;17.866;2022-09-09T02:30:56;102035.53;;;11.51;64.42
19795;BME280;10057;59.402;17.866;2022-09-09T02:33:25;102026.59;;;11.55;64.46
19795;BME280;10057;59.402;17.866;2022-09-09T02:35:53;102028.31;;;11.57;64.42
19795;BME280;10057;59.402;17.866;2022-09-09T02:38:26;102022.94;;;11.60;64.26
19795;BME280;10057;59.402;17.866;2022-09-09T02:40:55;102030.84;;;11.62;64.29
19795;BME280;10057;59.402;17.866;2022-09-09T02:43:21;102036.13;;;11.65;64.17
19795;BME280;10057;59.402;17.866;2022-09-09T02:46:00;102026.41;;;11.64;64.05
19795;BME280;10057;59.402;17.866;2022-09-09T02:51:24;102023.69;;;11.67;64.28
19795;BME280;10057;59.402;17.866;2022-09-09T02:54:08;102030.72;;;11.68;64.22
19795;BME280;10057;59.402;17.866;2022-09-09T02:56:40;102025.41;;;11.70;64.19
19795;BME280;10057;59.402;17.866;2022-09-09T02:59:08;102022.75;;;11.70;64.25
19795;BME280;10057;59.402;17.866;2022-09-09T03:01:34;102018.25;;;11.72;64.36
19795;BME280;10057;59.402;17.866;2022-09-09T03:04:02;102012.00;;;11.74;64.23
19795;BME280;10057;59.402;17.866;2022-09-09T03:06:31;102015.53;;;11.75;64.38
19795;BME280;10057;59.402;17.866;2022-09-09T03:08:58;102010.19;;;11.76;64.38
19795;BME280;10057;59.402;17.866;2022-09-09T03:11:27;102013.66;;;11.80;64.34
19795;BME280;10057;59.402;17.866;2022-09-09T03:13:54;102008.28;;;11.81;64.41
19795;BME280;10057;59.402;17.866;2022-09-09T03:16:23;102012.69;;;11.82;64.40
19795;BME280;10057;59.402;17.866;2022-09-09T03:18:50;102011.81;;;11.83;64.67
19795;BME280;10057;59.402;17.866;2022-09-09T03:21:17;102008.28;;;11.83;64.47
19795;BME280;10057;59.402;17.866;2022-09-09T03:23:44;102010.06;;;11.84;64.45
19795;BME280;10057;59.402;17.866;2022-09-09T03:26:17;101992.31;;;11.84;64.61
19795;BME280;10057;59.402;17.866;2022-09-09T03:28:43;101994.03;;;11.85;64.46
19795;BME280;10057;59.402;17.866;2022-09-09T03:31:11;101995.81;;;11.87;64.57
19795;BME280;10057;59.402;17.866;2022-09-09T03:33:39;101991.31;;;11.89;64.41
19795;BME280;10057;59.402;17.866;2022-09-09T03:36:07;101990.41;;;11.90;64.37
19795;BME280;10057;59.402;17.866;2022-09-09T03:38:34;101993.06;;;11.90;64.51
19795;BME280;10057;59.402;17.866;2022-09-09T03:41:02;101988.66;;;11.90;64.62
19795;BME280;10057;59.402;17.866;2022-09-09T03:43:28;101988.66;;;11.90;64.79
19795;BME280;10057;59.402;17.866;2022-09-09T03:45:56;101987.75;;;11.90;64.76
19795;BME280;10057;59.402;17.866;2022-09-09T03:48:26;101984.19;;;11.91;64.73
19795;BME280;10057;59.402;17.866;2022-09-09T03:50:54;101988.59;;;11.92;64.72
19795;BME280;10057;59.402;17.866;2022-09-09T03:53:24;101979.75;;;11.91;64.91
19795;BME280;10057;59.402;17.866;2022-09-09T03:55:53;101986.00;;;11.89;64.99
19795;BME280;10057;59.402;17.866;2022-09-09T03:58:26;101986.00;;;11.89;64.99
19795;BME280;10057;59.402;17.866;2022-09-09T04:00:58;101980.69;;;11.89;64.96
19795;BME280;10057;59.402;17.866;2022-09-09T04:03:26;101982.41;;;11.90;64.99
19795;BME280;10057;59.402;17.866;2022-09-09T04:05:55;101979.81;;;11.88;65.14
19795;BME280;10057;59.402;17.866;2022-09-09T04:08:22;101979.81;;;11.88;65.30
19795;BME280;10057;59.402;17.866;2022-09-09T04:10:52;101978.09;;;11.85;65.37
19795;BME280;10057;59.402;17.866;2022-09-09T04:13:19;101978.09;;;11.85;65.35
19795;BME280;10057;59.402;17.866;2022-09-09T04:15:58;101984.31;;;11.84;65.30
19795;BME280;10057;59.402;17.866;2022-09-09T04:18:26;101978.13;;;11.84;65.54
19795;BME280;10057;59.402;17.866;2022-09-09T04:20:54;101974.56;;;11.85;65.37
19795;BME280;10057;59.402;17.866;2022-09-09T04:23:24;101978.09;;;11.85;65.63
19795;BME280;10057;59.402;17.866;2022-09-09T04:25:53;101976.31;;;11.86;65.73
19795;BME280;10057;59.402;17.866;2022-09-09T04:28:22;101973.63;;;11.88;65.74
19795;BME280;10057;59.402;17.866;2022-09-09T04:30:49;101977.09;;;11.90;65.68
19795;BME280;10057;59.402;17.866;2022-09-09T04:33:16;101972.63;;;11.92;65.96
19795;BME280;10057;59.402;17.866;2022-09-09T04:35:45;101973.50;;;11.94;66.11
19795;BME280;10057;59.402;17.866;2022-09-09T04:38:12;101970.78;;;11.95;65.87
19795;BME280;10057;59.402;17.866;2022-09-09T04:40:39;101967.13;;;12.01;65.91
19795;BME280;10057;59.402;17.866;2022-09-09T04:43:09;101974.19;;;12.02;65.95
19795;BME280;10057;59.402;17.866;2022-09-09T04:45:40;101970.59;;;12.03;66.18
19795;BME280;10057;59.402;17.866;2022-09-09T04:48:08;101973.19;;;12.06;66.18
19795;BME280;10057;59.402;17.866;2022-09-09T04:50:36;101976.63;;;12.09;66.15
19795;BME280;10057;59.402;17.866;2022-09-09T04:53:04;101975.69;;;12.12;66.21
19795;BME280;10057;59.402;17.866;2022-09-09T04:55:32;101971.22;;;12.14;66.15
19795;BME280;10057;59.402;17.866;2022-09-09T04:58:07;101976.38;;;12.20;65.97
19795;BME280;10057;59.402;17.866;2022-09-09T05:00:35;101978.94;;;12.25;66.21
19795;BME280;10057;59.402;17.866;2022-09-09T05:03:03;101976.09;;;12.32;65.82
19795;BME280;10057;59.402;17.866;2022-09-09T05:05:31;101980.41;;;12.38;65.76
19795;BME280;10057;59.402;17.866;2022-09-09T05:08:05;101978.47;;;12.43;65.75
19795;BME280;10057;59.402;17.866;2022-09-09T05:10:37;101978.31;;;12.49;65.49
19795;BME280;10057;59.402;17.866;2022-09-09T05:13:07;101978.19;;;12.54;65.56
19795;BME280;10057;59.402;17.866;2022-09-09T05:15:33;101983.44;;;12.57;65.53
19795;BME280;10057;59.402;17.866;2022-09-09T05:18:01;101978.03;;;12.62;65.21
19795;BME280;10057;59.402;17.866;2022-09-09T05:20:29;101978.81;;;12.65;65.46
19795;BME280;10057;59.402;17.866;2022-09-09T05:22:56;101980.47;;;12.69;65.28
19795;BME280;10057;59.402;17.866;2022-09-09T05:25:32;101971.50;;;12.73;65.29
19795;BME280;10057;59.402;17.866;2022-09-09T05:27:58;101981.13;;;12.77;64.91
19795;BME280;10057;59.402;17.866;2022-09-09T05:30:25;101977.47;;;12.81;64.85
19795;BME280;10057;59.402;17.866;2022-09-09T05:32:56;101988.88;;;12.87;64.84
19795;BME280;10057;59.402;17.866;2022-09-09T05:35:28;101988.81;;;12.90;64.71
19795;BME280;10057;59.402;17.866;2022-09-09T05:37:59;101986.00;;;12.94;64.61
19795;BME280;10057;59.402;17.866;2022-09-09T05:40:26;101989.44;;;12.99;64.44
19795;BME280;10057;59.402;17.866;2022-09-09T05:42:52;101986.63;;;13.04;64.36
19795;BME280;10057;59.402;17.866;2022-09-09T05:45:19;101988.28;;;13.08;63.99
19795;BME280;10057;59.402;17.866;2022-09-09T05:47:51;101984.63;;;13.12;63.90
19795;BME280;10057;59.402;17.866;2022-09-09T05:50:22;101993.38;;;13.17;63.69
19795;BME280;10057;59.402;17.866;2022-09-09T05:52:48;101996.75;;;13.22;63.34
19795;BME280;10057;59.402;17.866;2022-09-09T05:55:16;101991.38;;;13.25;63.12
19795;BME280;10057;59.402;17.866;2022-09-09T05:57:50;101997.50;;;13.29;62.83
19795;BME280;10057;59.402;17.866;2022-09-09T06:00:18;101992.94;;;13.33;62.35
19795;BME280;10057;59.402;17.866;2022-09-09T06:02:51;101986.66;;;13.35;62.00
19795;BME280;10057;59.402;17.866;2022-09-09T06:05:19;101999.91;;;13.38;61.90
19795;BME280;10057;59.402;17.866;2022-09-09T06:07:46;101991.84;;;13.40;61.39
19795;BME280;10057;59.402;17.866;2022-09-09T06:10:12;101989.09;;;13.43;61.03
19795;BME280;10057;59.402;17.866;2022-09-09T06:12:43;101987.28;;;13.45;60.92
19795;BME280;10057;59.402;17.866;2022-09-09T06:15:13;101999.69;;;13.46;60.82
19795;BME280;10057;59.402;17.866;2022-09-09T06:17:39;101994.34;;;13.46;60.57
19795;BME280;10057;59.402;17.866;2022-09-09T06:20:10;101992.53;;;13.48;60.18
19795;BME280;10057;59.402;17.866;2022-09-09T06:22:40;101987.19;;;13.48;60.17
19795;BME280;10057;59.402;17.866;2022-09-09T06:25:08;101994.25;;;13.49;59.62
19795;BME280;10057;59.402;17.866;2022-09-09T06:27:36;101991.56;;;13.50;59.64
19795;BME280;10057;59.402;17.866;2022-09-09T06:30:05;101985.25;;;13.53;59.18
19795;BME280;10057;59.402;17.866;2022-09-09T06:32:36;101986.91;;;13.57;59.16
19795;BME280;10057;59.402;17.866;2022-09-09T06:35:04;101987.56;;;13.65;58.61
19795;BME280;10057;59.402;17.866;2022-09-09T06:37:31;101982.94;;;13.70;58.76
19795;BME280;10057;59.402;17.866;2022-09-09T06:40:00;101989.81;;;13.79;58.00
19795;BME280;10057;59.402;17.866;2022-09-09T06:42:27;101995.84;;;13.84;57.52
19795;BME280;10057;59.402;17.866;2022-09-09T06:44:54;101986.84;;;13.88;57.30
19795;BME280;10057;59.402;17.866;2022-09-09T06:47:24;101991.16;;;13.92;57.09
19795;BME280;10057;59.402;17.866;2022-09-09T06:49:53;101994.50;;;13.99;56.96
19795;BME280;10057;59.402;17.866;2022-09-09T06:52:20;101991.69;;;14.04;56.29
19795;BME280;10057;59.402;17.866;2022-09-09T06:54:49;101994.16;;;14.10;56.13
19795;BME280;10057;59.402;17.866;2022-09-09T06:57:16;101985.09;;;14.15;55.73
19795;BME280;10057;59.402;17.866;2022-09-09T07:00:03;101991.16;;;14.20;55.63
19795;BME280;10057;59.402;17.866;2022-09-09T07:02:31;101986.56;;;14.26;55.59
19795;BME280;10057;59.402;17.866;2022-09-09T07:04:58;101995.38;;;14.28;55.36
19795;BME280;10057;59.402;17.866;2022-09-09T07:07:25;102005.84;;;14.34;54.83
19795;BME280;10057;59.402;17.866;2022-09-09T07:09:51;102008.44;;;14.35;54.54
19795;BME280;10057;59.402;17.866;2022-09-09T07:12:18;102002.16;;;14.38;54.63
19795;BME280;10057;59.402;17.866;2022-09-09T07:14:45;102001.22;;;14.39;54.47
19795;BME280;10057;59.402;17.866;2022-09-09T07:17:11;102004.66;;;14.42;54.53
19795;BME280;10057;59.402;17.866;2022-09-09T07:19:38;101999.22;;;14.45;54.38
19795;BME280;10057;59.402;17.866;2022-09-09T07:22:04;101999.97;;;14.49;54.11
19795;BME280;10057;59.402;17.866;2022-09-09T07:24:32;102001.69;;;14.53;53.89
19795;BME280;10057;59.402;17.866;2022-09-09T07:26:59;102006.00;;;14.57;53.90
19795;BME280;10057;59.402;17.866;2022-09-09T07:29:25;102001.34;;;14.62;53.53
19795;BME280;10057;59.402;17.866;2022-09-09T07:31:52;101996.78;;;14.66;53.47
19795;BME280;10057;59.402;17.866;2022-09-09T07:34:19;102000.22;;;14.69;53.18
19795;BME280;10057;59.402;17.866;2022-09-09T07:36:45;101997.53;;;14.69;52.93
19795;BME280;10057;59.402;17.866;2022-09-09T07:39:13;101998.31;;;14.73;52.78
19795;BME280;10057;59.402;17.866;2022-09-09T07:41:43;101999.03;;;14.78;52.46
19795;BME280;10057;59.402;17.866;2022-09-09T07:44:12;101995.22;;;14.85;52.38
19795;BME280;10057;59.402;17.866;2022-09-09T07:46:40;101987.78;;;14.93;52.12
19795;BME280;10057;59.402;17.866;2022-09-09T07:49:08;101996.47;;;15.00;51.65
19795;BME280;10057;59.402;17.866;2022-09-09T07:51:40;101997.19;;;15.05;51.69
19795;BME280;10057;59.402;17.866;2022-09-09T07:54:10;101982.69;;;15.11;51.42
19795;BME280;10057;59.402;17.866;2022-09-09T07:56:38;101991.34;;;15.19;50.96
19795;BME280;10057;59.402;17.866;2022-09-09T07:59:06;101999.06;;;15.27;50.70
19795;BME280;10057;59.402;17.866;2022-09-09T08:01:39;102003.34;;;15.31;50.48
19795;BME280;10057;59.402;17.866;2022-09-09T08:04:13;102005.94;;;15.34;50.63
19795;BME280;10057;59.402;17.866;2022-09-09T08:06:57;101996.66;;;15.68;51.43
19795;BME280;10057;59.402;17.866;2022-09-09T08:09:26;102013.44;;;16.17;52.00
19795;BME280;10057;59.402;17.866;2022-09-09T08:11:56;102012.16;;;16.69;52.01
19795;BME280;10057;59.402;17.866;2022-09-09T08:14:23;102017.31;;;16.96;50.85
19795;BME280;10057;59.402;17.866;2022-09-09T08:16:50;102022.97;;;16.88;49.95
19795;BME280;10057;59.402;17.866;2022-09-09T08:19:20;102019.78;;;16.80;49.71
19795;BME280;10057;59.402;17.866;2022-09-09T08:21:47;102024.53;;;16.94;50.07
19795;BME280;10057;59.402;17.866;2022-09-09T08:24:15;102024.84;;;17.27;49.98
19795;BME280;10057;59.402;17.866;2022-09-09T08:26:45;102034.13;;;17.20;49.16
19795;BME280;10057;59.402;17.866;2022-09-09T08:29:15;102027.09;;;16.97;48.48
19795;BME280;10057;59.402;17.866;2022-09-09T08:31:55;102029.66;;;16.78;48.20
19795;BME280;10057;59.402;17.866;2022-09-09T08:34:24;102032.72;;;16.69;47.85
19795;BME280;10057;59.402;17.866;2022-09-09T08:36:54;102020.19;;;16.69;47.67
19795;BME280;10057;59.402;17.866;2022-09-09T08:39:21;102019.63;;;16.61;47.62
19795;BME280;10057;59.402;17.866;2022-09-09T08:44:52;102028.03;;;16.31;47.79
19795;BME280;10057;59.402;17.866;2022-09-09T08:47:26;102015.09;;;16.21;47.76
19795;BME280;10057;59.402;17.866;2022-09-09T09:00:49;102014.34;;;15.72;47.99
19795;BME280;10057;59.402;17.866;2022-09-09T09:09:05;102019.00;;;15.67;48.13
19795;BME280;10057;59.402;17.866;2022-09-09T09:11:45;102018.06;;;15.68;48.31
19795;BME280;10057;59.402;17.866;2022-09-09T09:14:22;102024.34;;;15.67;48.40
19795;BME280;10057;59.402;17.866;2022-09-09T09:16:58;102018.13;;;15.66;48.46
19795;BME280;10057;59.402;17.866;2022-09-09T09:19:32;102026.16;;;15.64;48.45
19795;BME280;10057;59.402;17.866;2022-09-09T09:22:11;102028.09;;;15.61;48.73
19795;BME280;10057;59.402;17.866;2022-09-09T09:27:35;102031.25;;;15.49;48.83
19795;BME280;10057;59.402;17.866;2022-09-09T09:30:18;102029.47;;;15.48;48.95
19795;BME280;10057;59.402;17.866;2022-09-09T09:33:04;102016.94;;;15.50;48.83
19795;BME280;10057;59.402;17.866;2022-09-09T09:35:32;102017.03;;;15.47;48.64
19795;BME280;10057;59.402;17.866;2022-09-09T09:38:23;102033.97;;;15.47;48.75
19795;BME280;10057;59.402;17.866;2022-09-09T09:41:10;102017.81;;;15.50;48.96
19795;BME280;10057;59.402;17.866;2022-09-09T09:43:40;102022.06;;;15.56;48.76
19795;BME280;10057;59.402;17.866;2022-09-09T09:46:23;102021.75;;;15.63;48.67
19795;BME280;10057;59.402;17.866;2022-09-09T09:49:03;102011.84;;;15.65;48.69
19795;BME280;10057;59.402;17.866;2022-09-09T09:51:33;102003.63;;;15.72;48.96
19795;BME280;10057;59.402;17.866;2022-09-09T09:54:09;102003.47;;;15.76;48.97
19795;BME280;10057;59.402;17.866;2022-09-09T09:56:40;102002.47;;;15.79;49.01
19795;BME280;10057;59.402;17.866;2022-09-09T09:59:23;101997.94;;;15.81;49.13
19795;BME280;10057;59.402;17.866;2022-09-09T10:02:15;102005.97;;;15.81;48.89
19795;BME280;10057;59.402;17.866;2022-09-09T10:04:42;101999.91;;;15.76;48.72
19795;BME280;10057;59.402;17.866;2022-09-09T10:07:19;101991.31;;;15.68;48.78
19795;BME280;10057;59.402;17.866;2022-09-09T10:09:53;101999.41;;;15.64;48.98
19795;BME280;10057;59.402;17.866;2022-09-09T10:27:01;101982.34;;;16.14;48.99
19795;BME280;10057;59.402;17.866;2022-09-09T10:49:27;101986.84;;;17.17;46.69
19795;BME280;10057;59.402;17.866;2022-09-09T10:52:15;101991.22;;;17.20;46.61
19795;BME280;10057;59.402;17.866;2022-09-09T10:55:08;101986.28;;;17.29;46.53
19795;BME280;10057;59.402;17.866;2022-09-09T10:57:41;101983.28;;;17.37;46.40
19795;BME280;10057;59.402;17.866;2022-09-09T11:00:16;101988.03;;;17.49;46.18
19795;BME280;10057;59.402;17.866;2022-09-09T11:02:48;101979.81;;;17.54;45.89
19795;BME280;10057;59.402;17.866;2022-09-09T11:05:27;101983.22;;;17.58;45.71
19795;BME280;10057;59.402;17.866;2022-09-09T11:07:59;101990.09;;;17.63;45.97
19795;BME280;10057;59.402;17.866;2022-09-09T11:10:48;101975.38;;;17.72;45.86
19795;BME280;10057;59.402;17.866;2022-09-09T11:16:01;101966.75;;;17.84;46.02
19795;BME280;10057;59.402;17.866;2022-09-09T11:18:31;101977.19;;;17.90;45.70
19795;BME280;10057;59.402;17.866;2022-09-09T11:21:03;101981.47;;;17.94;45.76
19795;BME280;10057;59.402;17.866;2022-09-09T11:23:41;101975.94;;;17.97;45.33
19795;BME280;10057;59.402;17.866;2022-09-09T11:26:17;101969.72;;;17.97;45.30
19795;BME280;10057;59.402;17.866;2022-09-09T11:29:12;101969.66;;;17.98;45.12
19795;BME280;10057;59.402;17.866;2022-09-09T11:31:56;101963.97;;;18.05;44.98
19795;BME280;10057;59.402;17.866;2022-09-09T11:39:52;101957.03;;;18.18;44.66
19795;BME280;10057;59.402;17.866;2022-09-09T11:42:25;101971.34;;;18.18;44.79
19795;BME280;10057;59.402;17.866;2022-09-09T11:44:52;101975.47;;;18.26;44.65
19795;BME280;10057;59.402;17.866;2022-09-09T11:47:29;101961.00;;;18.28;44.47
19795;BME280;10057;59.402;17.866;2022-09-09T11:52:41;101960.09;;;18.29;44.34
19795;BME280;10057;59.402;17.866;2022-09-09T11:55:25;101962.75;;;18.29;44.50
19795;BME280;10057;59.402;17.866;2022-09-09T11:58:00;101940.31;;;18.30;44.63
19795;BME280;10057;59.402;17.866;2022-09-09T12:00:40;101949.81;;;18.37;44.56
19795;BME280;10057;59.402;17.866;2022-09-09T12:08:51;101955.97;;;18.39;44.63
19795;BME280;10057;59.402;17.866;2022-09-09T12:11:26;101954.06;;;18.41;44.68
19795;BME280;10057;59.402;17.866;2022-09-09T12:13:55;101951.38;;;18.41;44.22
19795;BME280;10057;59.402;17.866;2022-09-09T12:16:31;101936.84;;;18.45;44.41
19795;BME280;10057;59.402;17.866;2022-09-09T12:19:14;101944.84;;;18.47;44.30
19795;BME280;10057;59.402;17.866;2022-09-09T12:21:53;101944.13;;;18.43;44.32
19795;BME280;10057;59.402;17.866;2022-09-09T12:27:33;101931.13;;;18.17;44.71
19795;BME280;10057;59.402;17.866;2022-09-09T12:30:04;101947.69;;;18.08;44.81
19795;BME280;10057;59.402;17.866;2022-09-09T12:32:35;101944.00;;;18.10;44.74
19795;BME280;10057;59.402;17.866;2022-09-09T12:35:22;101941.22;;;18.12;45.00
19795;BME280;10057;59.402;17.866;2022-09-09T12:37:56;101931.28;;;18.14;44.95
19795;BME280;10057;59.402;17.866;2022-09-09T12:40:29;101937.53;;;18.14;44.73
19795;BME280;10057;59.402;17.866;2022-09-09T12:42:58;101935.09;;;18.10;44.87
19795;BME280;10057;59.402;17.866;2022-09-09T12:45:32;101945.09;;;18.06;44.90
19795;BME280;10057;59.402;17.866;2022-09-09T12:48:00;101938.72;;;18.09;44.87
19795;BME280;10057;59.402;17.866;2022-09-09T12:50:36;101933.66;;;18.03;45.06
19795;BME280;10057;59.402;17.866;2022-09-09T12:53:14;101929.28;;;18.00;45.23
19795;BME280;10057;59.402;17.866;2022-09-09T12:55:57;101934.44;;;18.05;45.42
19795;BME280;10057;59.402;17.866;2022-09-09T12:58:25;101929.94;;;18.05;45.32
19795;BME280;10057;59.402;17.866;2022-09-09T13:00:56;101927.31;;;18.04;45.26
19795;BME280;10057;59.402;17.866;2022-09-09T13:03:24;101932.63;;;18.05;45.23
19795;BME280;10057;59.402;17.866;2022-09-09T13:05:57;101929.78;;;18.08;45.28
19795;BME280;10057;59.402;17.866;2022-09-09T13:08:26;101942.75;;;18.17;45.28
19795;BME280;10057;59.402;17.866;2022-09-09T13:13:34;101926.19;;;18.27;45.06
19795;BME280;10057;59.402;17.866;2022-09-09T13:16:03;101914.72;;;18.23;45.14
19795;BME280;10057;59.402;17.866;2022-09-09T13:18:35;101915.59;;;18.23;45.17
19795;BME280;10057;59.402;17.866;2022-09-09T13:21:02;101913.69;;;18.26;45.08
19795;BME280;10057;59.402;17.866;2022-09-09T13:23:31;101919.06;;;18.26;44.99
19795;BME280;10057;59.402;17.866;2022-09-09T13:26:00;101913.84;;;18.22;44.96
19795;BME280;10057;59.402;17.866;2022-09-09T13:28:29;101924.66;;;18.21;45.05
19795;BME280;10057;59.402;17.866;2022-09-09T13:31:04;101907.22;;;18.12;44.84
19795;BME280;10057;59.402;17.866;2022-09-09T13:33:36;101919.25;;;18.04;44.82
19795;BME280;10057;59.402;17.866;2022-09-09T13:36:10;101919.88;;;17.91;44.92
19795;BME280;10057;59.402;17.866;2022-09-09T13:41:21;101912.44;;;17.79;45.17
19795;BME280;10057;59.402;17.866;2022-09-09T13:43:50;101910.97;;;17.72;45.38
19795;BME280;10057;59.402;17.866;2022-09-09T13:46:37;101906.84;;;17.65;45.62
19795;BME280;10057;59.402;17.866;2022-09-09T13:51:40;101922.00;;;17.66;45.56
19795;BME280;10057;59.402;17.866;2022-09-09T13:54:10;101920.31;;;17.63;45.54
19795;BME280;10057;59.402;17.866;2022-09-09T13:56:38;101914.22;;;17.60;45.46
19795;BME280;10057;59.402;17.866;2022-09-09T13:59:18;101916.28;;;17.55;45.22
19795;BME280;10057;59.402;17.866;2022-09-09T14:01:49;101923.81;;;17.46;45.44
19795;BME280;10057;59.402;17.866;2022-09-09T14:04:16;101918.88;;;17.37;45.45
19795;BME280;10057;59.402;17.866;2022-09-09T14:06:43;101918.38;;;17.29;45.76
19795;BME280;10057;59.402;17.866;2022-09-09T14:09:12;101908.72;;;17.25;45.82
19795;BME280;10057;59.402;17.866;2022-09-09T14:11:40;101901.03;;;17.17;45.62
19795;BME280;10057;59.402;17.866;2022-09-09T14:14:07;101898.72;;;17.10;45.70
19795;BME280;10057;59.402;17.866;2022-09-09T14:16:34;101896.38;;;17.02;46.15
19795;BME280;10057;59.402;17.866;2022-09-09T14:19:01;101908.28;;;16.96;46.16
19795;BME280;10057;59.402;17.866;2022-09-09T14:21:28;101898.47;;;16.95;46.05
19795;BME280;10057;59.402;17.866;2022-09-09T14:23:54;101894.91;;;16.95;46.26
19795;BME280;10057;59.402;17.866;2022-09-09T14:26:21;101910.13;;;16.94;46.25
19795;BME280;10057;59.402;17.866;2022-09-09T14:28:48;101902.09;;;16.94;46.39
19795;BME280;10057;59.402;17.866;2022-09-09T14:31:24;101900.22;;;16.96;46.21
19795;BME280;10057;59.402;17.866;2022-09-09T14:33:51;101899.56;;;16.91;46.02
19795;BME280;10057;59.402;17.866;2022-09-09T14:36:19;101908.53;;;16.90;46.22
19795;BME280;10057;59.402;17.866;2022-09-09T14:38:45;101900.56;;;16.89;46.25
19795;BME280;10057;59.402;17.866;2022-09-09T14:41:14;101894.56;;;16.84;46.21
19795;BME280;10057;59.402;17.866;2022-09-09T14:43:45;101900.13;;;16.79;46.19
19795;BME280;10057;59.402;17.866;2022-09-09T14:46:14;101887.91;;;16.72;46.23
19795;BME280;10057;59.402;17.866;2022-09-09T14:48:41;101901.63;;;16.64;46.48
19795;BME280;10057;59.402;17.866;2022-09-09T14:51:13;101891.13;;;16.59;46.58
19795;BME280;10057;59.402;17.866;2022-09-09T14:53:42;101897.47;;;16.57;46.45
19795;BME280;10057;59.402;17.866;2022-09-09T14:56:17;101886.13;;;16.52;46.62
19795;BME280;10057;59.402;17.866;2022-09-09T14:58:44;101886.25;;;16.49;46.41
19795;BME280;10057;59.402;17.866;2022-09-09T15:01:14;101890.91;;;16.44;46.55
19795;BME280;10057;59.402;17.866;2022-09-09T15:03:42;101892.84;;;16.40;46.75
19795;BME280;10057;59.402;17.866;2022-09-09T15:06:13;101889.41;;;16.38;46.98
19795;BME280;10057;59.402;17.866;2022-09-09T15:08:43;101891.25;;;16.36;46.77
19795;BME280;10057;59.402;17.866;2022-09-09T15:11:11;101895.88;;;16.32;46.90